Terminal Aerodrome Forecast
Issued by NWS

Home | Current Version | Previous Version | Text Only | Print | Product List | Glossary On
Versions: 1 2 3 4 5 6 7 8 9 10 11 12 13 14 15 16 17 18 19 20 21 22 23 24 25 26 27 28 29 30 31 32 33 34 35 36 37 38 39 40 41 42 43 44 45 46 47 48 49 50
000
FTUS42 KMFL 050908 AAA
TAFFXE
TAF AMD
KFXE 050908Z 0509/0606 07008KT P6SM VCSH FEW018 SCT080 BKN110
      TEMPO 0509/0511 VRB20KT 5SM SHRA BKN025
     FM051400 08014G20KT P6SM VCTS SCT030CB BKN050 BKN250
      TEMPO 0515/0519 VRB25KT 5SM TSRA BKN035CB
     FM060000 08010KT P6SM VCSH SCT025 BKN040 BKN250=

USA.gov is the U.S. government's official web portal to all federal, state and local government web resources and services.